Time;durP1;ratioP1;P1;durP2;ratioP2;P2;SDS_P1;SDS_P2;PMS_P1;PMS_P2;Temp;Humidity;BMP_temperature;BMP_pressure;BME280_temperature;BME280_humidity;BME280_pressure;Samples;Min_cycle;Max_cycle;Signal;HPM_P1;HPM_P2
2022/06/24 00:00:06;;;;;;;13.40;5.57;;;24.30;54.00;;;;;;4936996;29;20031;-72
2022/06/24 00:02:32;;;;;;;12.10;5.13;;;24.30;54.10;;;;;;4933260;29;20431;-71
2022/06/24 00:05:04;;;;;;;9.50;5.10;;;24.30;54.10;;;;;;4936167;29;20028;-72
2022/06/24 00:07:47;;;;;;;9.05;5.00;;;24.30;54.10;;;;;;4947566;29;20028;-72
2022/06/24 00:10:17;;;;;;;9.13;4.50;;;24.30;54.10;;;;;;4936104;29;20058;-71
2022/06/24 00:12:47;;;;;;;9.52;4.60;;;24.30;54.00;;;;;;4933989;29;20051;-71
2022/06/24 00:15:13;;;;;;;12.00;4.35;;;24.30;54.00;;;;;;4932816;29;20100;-71
2022/06/24 00:17:40;;;;;;;8.55;4.60;;;24.30;54.00;;;;;;4933349;29;20032;-71
2022/06/24 00:20:09;;;;;;;14.25;4.80;;;24.30;54.00;;;;;;4934282;29;20059;-71
2022/06/24 00:22:47;;;;;;;9.97;4.30;;;24.30;54.10;;;;;;4933693;29;20487;-72
2022/06/24 00:25:18;;;;;;;10.15;4.35;;;24.30;54.10;;;;;;4933919;29;20070;-71
2022/06/24 00:28:00;;;;;;;17.42;4.65;;;24.30;54.00;;;;;;4942745;29;20427;-71
2022/06/24 00:30:26;;;;;;;10.77;4.25;;;24.30;54.00;;;;;;4952448;28;20032;-72
2022/06/24 00:32:52;;;;;;;6.20;3.97;;;24.30;54.00;;;;;;4948536;29;20035;-71
2022/06/24 00:35:18;;;;;;;7.70;4.25;;;24.30;54.00;;;;;;4933427;29;20083;-71
2022/06/24 00:37:46;;;;;;;8.63;3.95;;;24.30;54.10;;;;;;4937034;29;20110;-72
2022/06/24 00:40:11;;;;;;;9.27;3.92;;;24.30;54.10;;;;;;4933940;29;20028;-71
2022/06/24 00:42:42;;;;;;;6.93;3.80;;;24.30;54.10;;;;;;4948248;28;20415;-71
2022/06/24 00:45:38;;;;;;;6.65;3.72;;;24.30;54.10;;;;;;4953168;28;20555;-72
2022/06/24 00:48:15;;;;;;;9.65;4.18;;;24.30;54.10;;;;;;4938341;29;20039;-71
2022/06/24 00:50:46;;;;;;;9.75;4.35;;;24.30;54.60;;;;;;4936821;29;20024;-71
2022/06/24 00:53:13;;;;;;;10.98;3.90;;;24.30;54.00;;;;;;4953829;28;20146;-71
2022/06/24 00:55:43;;;;;;;6.60;3.50;;;24.30;54.10;;;;;;4968220;28;20373;-71
2022/06/24 00:58:14;;;;;;;7.65;3.72;;;24.30;54.10;;;;;;4935898;29;20067;-71
2022/06/24 01:00:43;;;;;;;9.98;4.20;;;24.30;54.10;;;;;;4938176;29;20122;-72
2022/06/24 01:03:11;;;;;;;9.45;4.03;;;24.30;54.10;;;;;;4939869;29;20368;-71
2022/06/24 01:05:37;;;;;;;11.40;3.38;;;24.30;54.10;;;;;;4939770;29;20087;-71
2022/06/24 01:08:08;;;;;;;9.35;3.60;;;24.30;54.30;;;;;;4939860;29;20035;-71
2022/06/24 01:10:34;;;;;;;6.47;3.50;;;24.30;54.30;;;;;;4942116;29;20024;-71
2022/06/24 01:13:00;;;;;;;6.20;3.50;;;24.30;54.30;;;;;;4958507;28;20042;-72
2022/06/24 01:15:27;;;;;;;8.20;3.83;;;24.30;54.30;;;;;;4956431;28;20369;-72
2022/06/24 01:17:52;;;;;;;6.93;3.78;;;24.30;54.30;;;;;;4943263;29;20035;-71
2022/06/24 01:20:18;;;;;;;5.07;3.58;;;24.30;54.30;;;;;;4954869;28;20036;-72
2022/06/24 01:22:44;;;;;;;6.90;3.78;;;24.30;54.30;;;;;;4944385;28;20031;-72
2022/06/24 01:25:11;;;;;;;7.00;3.60;;;24.30;54.30;;;;;;4936452;28;20036;-72
2022/06/24 01:27:38;;;;;;;6.15;3.50;;;24.30;54.30;;;;;;4954049;28;20019;-72
2022/06/24 01:30:05;;;;;;;5.72;3.45;;;24.30;54.30;;;;;;4935009;29;20177;-71
2022/06/24 01:32:33;;;;;;;7.60;3.10;;;24.30;54.30;;;;;;4943781;29;20090;-71
2022/06/24 01:34:58;;;;;;;8.15;3.13;;;24.30;54.30;;;;;;4938222;29;20023;-72
2022/06/24 01:37:24;;;;;;;7.20;3.55;;;24.30;54.30;;;;;;4948554;29;20057;-71
2022/06/24 01:39:50;;;;;;;6.10;3.28;;;24.30;54.30;;;;;;4939218;29;20047;-71
2022/06/24 01:42:16;;;;;;;9.85;3.40;;;24.30;54.20;;;;;;4938226;29;20031;-72
2022/06/24 01:44:42;;;;;;;5.18;2.90;;;24.30;54.30;;;;;;4935275;29;20244;-72
2022/06/24 01:47:08;;;;;;;5.43;3.13;;;24.30;54.20;;;;;;4950136;28;20054;-72
2022/06/24 01:49:34;;;;;;;8.25;3.38;;;24.30;54.20;;;;;;4940282;29;20053;-71
2022/06/24 01:52:03;;;;;;;5.82;2.90;;;24.30;54.20;;;;;;4940816;29;20059;-71
2022/06/24 01:54:29;;;;;;;5.95;3.38;;;24.30;54.20;;;;;;4938616;29;20360;-71
2022/06/24 01:56:55;;;;;;;6.75;3.40;;;24.30;54.30;;;;;;4943548;29;20079;-71
2022/06/24 01:59:21;;;;;;;12.30;3.53;;;24.30;54.30;;;;;;4974879;28;20491;-71
2022/06/24 02:01:47;;;;;;;8.75;3.40;;;24.30;54.30;;;;;;4940185;29;20031;-71
2022/06/24 02:04:13;;;;;;;5.32;3.22;;;24.20;54.20;;;;;;4938924;29;20035;-71
2022/06/24 02:06:39;;;;;;;5.30;3.00;;;24.20;54.20;;;;;;4940396;29;20030;-71
2022/06/24 02:09:06;;;;;;;5.50;3.13;;;24.20;54.20;;;;;;4966981;28;20462;-71
2022/06/24 02:14:18;;;;;;;4.75;2.90;;;24.20;54.10;;;;;;4939680;29;20035;-71
2022/06/24 02:16:45;;;;;;;6.32;3.40;;;24.20;54.10;;;;;;4942555;28;20435;-70
2022/06/24 02:19:11;;;;;;;5.38;2.83;;;24.20;54.10;;;;;;4943906;29;20031;-71
2022/06/24 02:21:38;;;;;;;9.30;3.35;;;24.20;54.00;;;;;;4937794;29;20028;-71
2022/06/24 02:24:05;;;;;;;4.63;3.20;;;24.20;53.90;;;;;;4936888;29;20373;-71
2022/06/24 02:26:31;;;;;;;5.43;3.35;;;24.20;53.80;;;;;;4937123;29;20488;-72
2022/06/24 02:28:56;;;;;;;5.75;2.72;;;24.10;53.70;;;;;;4937559;29;20104;-71
2022/06/24 02:31:22;;;;;;;10.48;3.47;;;24.20;53.80;;;;;;4940455;29;20035;-71
2022/06/24 02:33:48;;;;;;;7.28;3.00;;;24.20;53.70;;;;;;4924566;29;20046;-71
2022/06/24 02:36:15;;;;;;;6.47;3.25;;;24.10;53.50;;;;;;4941884;29;20075;-71
2022/06/24 02:38:41;;;;;;;5.65;3.03;;;24.20;53.50;;;;;;4939244;29;20514;-71
2022/06/24 02:41:07;;;;;;;6.07;2.83;;;24.10;53.40;;;;;;4940661;29;20031;-71
2022/06/24 02:43:35;;;;;;;5.13;3.10;;;24.10;53.30;;;;;;4949825;28;20060;-71
2022/06/24 02:46:04;;;;;;;5.43;2.83;;;24.10;53.30;;;;;;4941062;29;20444;-71
2022/06/24 02:48:31;;;;;;;4.75;2.70;;;24.10;53.30;;;;;;4937537;29;20516;-71
2022/06/24 02:51:00;;;;;;;7.63;3.47;;;24.10;53.30;;;;;;4943464;29;20491;-71
2022/06/24 02:53:27;;;;;;;7.82;3.10;;;24.10;53.20;;;;;;4938209;29;20083;-71
2022/06/24 02:56:04;;;;;;;6.15;3.20;;;24.10;53.00;;;;;;4965376;28;20028;-71
2022/06/24 02:58:31;;;;;;;9.32;3.17;;;24.10;53.00;;;;;;4940835;29;20398;-71
2022/06/24 03:00:58;;;;;;;6.07;2.95;;;24.10;53.00;;;;;;4937656;29;20036;-71
2022/06/24 03:03:24;;;;;;;4.35;2.60;;;24.00;52.90;;;;;;4954960;28;20394;-71
2022/06/24 03:05:51;;;;;;;4.13;2.45;;;24.00;52.90;;;;;;4944771;29;20223;-71
2022/06/24 03:08:18;;;;;;;6.38;2.85;;;24.00;53.00;;;;;;4943266;28;20481;-71
2022/06/24 03:10:44;;;;;;;4.65;2.72;;;24.00;52.80;;;;;;4956097;28;20106;-71
2022/06/24 03:13:10;;;;;;;6.53;2.88;;;24.00;52.70;;;;;;4937852;28;20038;-71
2022/06/24 03:15:37;;;;;;;4.30;2.50;;;24.00;52.70;;;;;;4939180;29;20024;-71
2022/06/24 03:18:03;;;;;;;5.65;2.85;;;24.00;52.60;;;;;;4952490;28;20091;-71
2022/06/24 03:20:29;;;;;;;6.47;2.42;;;24.00;52.70;;;;;;4957470;28;20039;-72
2022/06/24 03:22:55;;;;;;;6.78;2.92;;;24.00;52.60;;;;;;4939660;28;20059;-71
2022/06/24 03:25:21;;;;;;;10.13;2.92;;;24.00;52.60;;;;;;4938992;28;20419;-71
2022/06/24 03:27:47;;;;;;;3.45;2.55;;;24.00;52.60;;;;;;4938888;29;20391;-71
2022/06/24 03:30:13;;;;;;;5.30;2.88;;;24.00;52.40;;;;;;4939119;29;20028;-72
2022/06/24 03:32:39;;;;;;;4.72;2.72;;;24.00;52.50;;;;;;4933389;29;20027;-72
2022/06/24 03:35:06;;;;;;;5.70;2.80;;;24.00;52.50;;;;;;4937185;29;20023;-72
2022/06/24 03:37:33;;;;;;;3.58;2.30;;;24.00;52.30;;;;;;4966457;28;20557;-72
2022/06/24 03:40:02;;;;;;;4.17;2.77;;;24.00;52.50;;;;;;4962918;28;20047;-72
2022/06/24 03:42:28;;;;;;;4.75;2.65;;;24.00;52.30;;;;;;4965038;28;20035;-71
2022/06/24 03:44:55;;;;;;;6.15;2.72;;;24.00;52.20;;;;;;4953365;28;20372;-72
2022/06/24 03:47:21;;;;;;;4.65;2.53;;;24.00;52.20;;;;;;4934348;28;20035;-72
2022/06/24 03:49:47;;;;;;;4.75;2.60;;;24.00;52.20;;;;;;4933034;29;20543;-71
2022/06/24 03:52:12;;;;;;;4.60;2.92;;;24.00;52.20;;;;;;4933079;29;20036;-72
2022/06/24 03:54:38;;;;;;;6.05;3.22;;;24.00;52.20;;;;;;4950324;29;20118;-71
2022/06/24 03:57:04;;;;;;;4.82;2.83;;;24.00;52.10;;;;;;4936172;29;20035;-72
2022/06/24 03:59:30;;;;;;;9.90;3.05;;;24.00;52.10;;;;;;4933838;29;20035;-72
2022/06/24 04:01:57;;;;;;;4.38;2.60;;;24.00;52.00;;;;;;4939170;29;20051;-72
2022/06/24 04:04:23;;;;;;;4.57;2.67;;;24.00;52.60;;;;;;4951025;28;20046;-72
2022/06/24 04:06:49;;;;;;;8.63;3.17;;;24.00;52.10;;;;;;4939388;29;20032;-72
2022/06/24 04:09:15;;;;;;;4.30;2.70;;;24.00;52.00;;;;;;4964298;28;20546;-72
2022/06/24 04:11:40;;;;;;;6.35;3.25;;;24.00;52.30;;;;;;4939748;29;20512;-72
2022/06/24 04:14:06;;;;;;;6.78;3.05;;;24.00;52.10;;;;;;4935455;29;20035;-72
2022/06/24 04:16:32;;;;;;;7.38;3.53;;;24.00;52.00;;;;;;4967127;28;20027;-72
2022/06/24 04:18:58;;;;;;;5.40;3.20;;;24.00;51.90;;;;;;4931263;29;20040;-72
2022/06/24 04:21:24;;;;;;;5.97;3.17;;;24.00;52.00;;;;;;4950743;28;20042;-72
2022/06/24 04:23:50;;;;;;;5.47;3.05;;;24.00;52.00;;;;;;4966329;28;20071;-72
2022/06/24 04:26:18;;;;;;;8.05;3.47;;;24.00;52.00;;;;;;4938599;29;20032;-72
2022/06/24 04:28:45;;;;;;;5.75;3.40;;;24.00;52.50;;;;;;4936359;29;20055;-72
2022/06/24 04:31:12;;;;;;;5.95;3.53;;;24.00;52.00;;;;;;4951022;28;20399;-72
2022/06/24 04:33:38;;;;;;;6.93;3.38;;;24.00;52.00;;;;;;4936143;29;20023;-72
2022/06/24 04:36:14;;;;;;;7.05;3.58;;;24.00;52.00;;;;;;4942834;28;20019;-72
2022/06/24 04:38:41;;;;;;;6.40;3.50;;;24.00;52.00;;;;;;4928862;29;20038;-72
2022/06/24 04:41:18;;;;;;;5.05;3.30;;;24.00;52.00;;;;;;4941626;29;20031;-72
2022/06/24 04:43:45;;;;;;;8.15;3.90;;;24.00;52.00;;;;;;4931050;29;20031;-72
2022/06/24 04:46:10;;;;;;;6.47;3.60;;;24.00;52.00;;;;;;4939067;29;20511;-72
2022/06/24 04:48:37;;;;;;;7.43;4.05;;;24.00;52.00;;;;;;4937781;29;20028;-72
2022/06/24 04:51:03;;;;;;;7.00;3.42;;;24.00;52.00;;;;;;4946199;28;20491;-72
2022/06/24 04:53:30;;;;;;;7.55;3.83;;;24.00;52.00;;;;;;4952902;28;20032;-72
2022/06/24 04:55:57;;;;;;;8.98;4.38;;;24.00;52.00;;;;;;4942670;29;20044;-72
2022/06/24 04:58:23;;;;;;;7.70;4.20;;;24.00;52.00;;;;;;4940234;29;20098;-72
2022/06/24 05:00:49;;;;;;;8.02;4.18;;;24.00;52.00;;;;;;4938850;28;20044;-72
2022/06/24 05:03:15;;;;;;;5.72;3.65;;;24.00;51.90;;;;;;4939323;28;20042;-71
2022/06/24 05:05:41;;;;;;;7.85;3.85;;;24.00;52.00;;;;;;4957390;28;20055;-72
2022/06/24 05:08:07;;;;;;;8.27;4.50;;;24.00;51.90;;;;;;4958031;28;20105;-72
2022/06/24 05:10:33;;;;;;;6.45;3.97;;;24.00;51.90;;;;;;4943894;29;20491;-72
2022/06/24 05:12:59;;;;;;;7.18;4.15;;;24.00;51.90;;;;;;4956415;28;20020;-72
2022/06/24 05:15:25;;;;;;;5.13;3.17;;;24.00;52.00;;;;;;4939767;29;20047;-72
2022/06/24 05:17:50;;;;;;;6.90;3.80;;;24.00;51.90;;;;;;4941602;29;20049;-72
2022/06/24 05:20:19;;;;;;;8.77;4.10;;;24.00;52.00;;;;;;4941461;29;20043;-72
2022/06/24 05:22:45;;;;;;;7.77;3.67;;;24.00;51.90;;;;;;4973892;28;20063;-72
2022/06/24 05:25:11;;;;;;;6.32;3.70;;;24.00;51.90;;;;;;4943689;29;20418;-71
2022/06/24 05:27:36;;;;;;;8.95;3.97;;;24.00;52.00;;;;;;4935498;29;20035;-72
2022/06/24 05:30:03;;;;;;;5.65;3.42;;;24.10;52.00;;;;;;4943205;29;20031;-72
2022/06/24 05:32:29;;;;;;;7.53;3.88;;;24.10;52.00;;;;;;4942607;29;20036;-72
2022/06/24 05:34:56;;;;;;;9.95;3.67;;;24.10;51.90;;;;;;4939686;29;20106;-72
2022/06/24 05:37:22;;;;;;;7.10;3.85;;;24.10;52.00;;;;;;4939601;29;20028;-72
2022/06/24 05:39:47;;;;;;;6.28;3.22;;;24.10;51.90;;;;;;4939080;29;20028;-72
2022/06/24 05:42:13;;;;;;;9.55;3.72;;;24.10;51.90;;;;;;4938815;28;20023;-72
2022/06/24 05:44:39;;;;;;;6.70;3.67;;;24.10;51.90;;;;;;4938454;29;20042;-72
2022/06/24 05:47:05;;;;;;;7.03;3.50;;;24.10;51.80;;;;;;4939507;28;20027;-72
2022/06/24 05:49:31;;;;;;;6.78;3.58;;;24.20;52.20;;;;;;4937041;28;20027;-72
2022/06/24 05:51:56;;;;;;;7.55;3.47;;;24.10;51.80;;;;;;4955844;28;20070;-72
2022/06/24 05:57:07;;;;;;;8.30;3.85;;;24.20;51.90;;;;;;4932216;29;20095;-72
2022/06/24 05:59:37;;;;;;;6.78;3.72;;;24.20;51.90;;;;;;4937950;29;20507;-72
2022/06/24 06:02:07;;;;;;;7.20;3.50;;;24.20;51.90;;;;;;4971398;23;20411;-79
2022/06/24 06:04:33;;;;;;;;;;;24.20;51.90;;;;;;4967366;28;20033;-79
2022/06/24 06:06:59;;;;;;;6.45;3.45;;;24.10;51.80;;;;;;4965578;28;19910;-78
2022/06/24 06:09:25;;;;;;;6.50;3.47;;;24.20;52.00;;;;;;4966474;28;20432;-80
2022/06/24 06:11:51;;;;;;;9.52;3.42;;;24.10;51.80;;;;;;4966033;28;20457;-79
2022/06/24 06:14:17;;;;;;;6.72;3.47;;;24.20;51.80;;;;;;4970988;28;20113;-80
2022/06/24 06:16:42;;;;;;;8.05;3.67;;;24.20;51.80;;;;;;4962218;28;20023;-78
2022/06/24 06:19:08;;;;;;;8.85;3.35;;;24.20;51.80;;;;;;4967573;28;20109;-80
2022/06/24 06:21:34;;;;;;;9.00;3.67;;;24.20;51.90;;;;;;4983588;28;20031;-80
2022/06/24 06:24:00;;;;;;;5.35;3.38;;;24.20;51.90;;;;;;4956568;28;20038;-81
2022/06/24 06:26:26;;;;;;;8.85;3.75;;;24.20;51.90;;;;;;4969980;28;20058;-78
2022/06/24 06:28:53;;;;;;;8.25;3.63;;;24.20;52.00;;;;;;4966384;28;20027;-79
2022/06/24 06:31:19;;;;;;;9.68;3.53;;;24.20;51.90;;;;;;4973184;28;20034;-79
2022/06/24 06:33:45;;;;;;;12.27;3.60;;;24.20;52.00;;;;;;4968442;28;20019;-80
2022/06/24 06:36:12;;;;;;;8.73;4.35;;;24.20;52.10;;;;;;4968942;28;20049;-80
2022/06/24 06:38:39;;;;;;;7.72;3.60;;;24.20;52.10;;;;;;4949387;28;20030;-79
2022/06/24 06:41:12;;;;;;;10.35;3.55;;;24.20;52.10;;;;;;4966919;28;20483;-80
2022/06/24 06:43:40;;;;;;;19.08;4.75;;;24.20;52.10;;;;;;4975027;28;20109;-80
2022/06/24 06:46:10;;;;;;;8.82;3.67;;;24.30;52.20;;;;;;4971946;28;20062;-79
2022/06/24 06:48:37;;;;;;;12.30;3.72;;;24.30;52.20;;;;;;4961803;28;20093;-79
2022/06/24 06:51:03;;;;;;;8.00;3.63;;;24.30;52.30;;;;;;4973425;28;20030;-80
2022/06/24 06:53:29;;;;;;;10.48;3.65;;;24.30;52.40;;;;;;4970490;28;20039;-79
2022/06/24 06:55:55;;;;;;;12.45;4.15;;;24.30;52.90;;;;;;4978547;28;20022;-79
2022/06/24 06:58:22;;;;;;;9.18;3.92;;;24.30;52.20;;;;;;4965201;28;20114;-80
2022/06/24 07:00:48;;;;;;;9.68;3.72;;;24.30;52.20;;;;;;4987972;28;20023;-82
2022/06/24 07:03:14;;;;;;;13.63;3.53;;;24.30;52.10;;;;;;4963091;28;20062;-71
2022/06/24 07:05:42;;;;;;;13.70;5.70;;;24.40;52.00;;;;;;4962764;28;20451;-71
2022/06/24 07:08:10;;;;;;;17.08;11.13;;;24.40;51.90;;;;;;4966259;28;20063;-71
2022/06/24 07:10:37;;;;;;;14.75;9.27;;;24.50;50.80;;;;;;4964779;28;20030;-70
2022/06/24 07:13:03;;;;;;;14.18;7.20;;;24.50;51.40;;;;;;4979577;28;20027;-71
2022/06/24 07:15:29;;;;;;;9.43;5.68;;;24.50;50.90;;;;;;4970240;28;20035;-71
2022/06/24 07:17:54;;;;;;;12.73;5.65;;;24.60;51.20;;;;;;4969456;28;20061;-71
2022/06/24 07:20:20;;;;;;;11.73;6.15;;;24.60;50.90;;;;;;4974337;28;20479;-82
2022/06/24 07:22:46;;;;;;;14.00;6.45;;;24.60;50.70;;;;;;4973437;28;20058;-80
2022/06/24 07:25:12;;;;;;;13.38;7.03;;;24.70;51.60;;;;;;4974831;28;20030;-84
2022/06/24 07:27:38;;;;;;;14.10;5.68;;;24.70;51.60;;;;;;4988268;28;20031;-79
2022/06/24 07:30:04;;;;;;;24.27;7.45;;;24.70;51.50;;;;;;4969705;28;20101;-81
2022/06/24 07:32:30;;;;;;;23.98;6.80;;;24.70;52.90;;;;;;4973722;28;20053;-84
2022/06/24 07:34:56;;;;;;;16.38;6.75;;;24.60;53.20;;;;;;4971322;28;20134;-83
2022/06/24 07:37:22;;;;;;;16.55;7.13;;;24.60;53.80;;;;;;4973611;28;20054;-73
2022/06/24 07:39:48;;;;;;;15.73;6.63;;;24.50;53.60;;;;;;4956100;28;20034;-81
2022/06/24 07:42:14;;;;;;;17.13;7.53;;;24.50;54.00;;;;;;4986785;28;20027;-80
2022/06/24 07:44:42;;;;;;;15.02;6.38;;;24.50;53.30;;;;;;4970030;28;20023;-78
2022/06/24 07:47:09;;;;;;;16.43;6.70;;;24.40;53.90;;;;;;4971862;28;20022;-79
2022/06/24 07:49:35;;;;;;;18.00;6.45;;;24.40;53.50;;;;;;4975423;28;20293;-79
2022/06/24 07:52:01;;;;;;;24.45;8.00;;;24.30;53.60;;;;;;4974326;28;20031;-81
2022/06/24 07:54:27;;;;;;;16.25;6.55;;;24.40;53.40;;;;;;4953703;28;20439;-81
2022/06/24 07:56:58;;;;;;;19.92;6.65;;;24.40;53.60;;;;;;4968312;28;20435;-78
2022/06/24 07:59:26;;;;;;;15.85;6.50;;;24.40;53.70;;;;;;4970065;28;20538;-79
2022/06/24 08:01:54;;;;;;;17.42;6.72;;;24.40;53.60;;;;;;4967957;28;20060;-79
2022/06/24 08:04:21;;;;;;;21.83;6.32;;;24.40;53.70;;;;;;4953116;28;20399;-79
2022/06/24 08:06:49;;;;;;;13.98;6.65;;;24.40;53.50;;;;;;4971468;28;20113;-81
2022/06/24 08:09:25;;;;;;;18.75;7.18;;;24.40;53.80;;;;;;4970560;28;20019;-81
2022/06/24 08:11:52;;;;;;;17.90;7.45;;;24.40;54.10;;;;;;4984643;28;20031;-81
2022/06/24 08:14:19;;;;;;;16.55;7.28;;;24.40;54.10;;;;;;4969481;28;20027;-81
2022/06/24 08:16:45;;;;;;;15.30;7.43;;;24.40;54.10;;;;;;4969133;28;20030;-81
2022/06/24 08:19:14;;;;;;;13.55;6.72;;;24.40;53.90;;;;;;4970593;28;20027;-79
2022/06/24 08:21:40;;;;;;;13.95;6.95;;;24.40;54.20;;;;;;4965300;28;20035;-78
2022/06/24 08:24:06;;;;;;;16.02;7.05;;;24.40;54.20;;;;;;4954253;28;20037;-77
2022/06/24 08:26:33;;;;;;;16.42;6.72;;;24.40;54.00;;;;;;4974212;28;20039;-79
2022/06/24 08:28:59;;;;;;;13.35;6.80;;;24.40;53.90;;;;;;4957471;28;20487;-77
2022/06/24 08:31:25;;;;;;;16.70;7.90;;;24.40;53.90;;;;;;4974127;28;20025;-78
2022/06/24 08:33:51;;;;;;;15.88;7.57;;;24.40;55.70;;;;;;4989724;28;20031;-79
2022/06/24 08:36:16;;;;;;;19.02;6.90;;;24.50;55.10;;;;;;4972924;28;20034;-75
2022/06/24 08:38:42;;;;;;;15.63;5.32;;;24.70;53.20;;;;;;4973873;28;20507;-75
2022/06/24 08:41:09;;;;;;;11.27;6.70;;;25.00;50.30;;;;;;4972583;28;20038;-75
2022/06/24 08:43:35;;;;;;;22.95;17.13;;;25.30;51.60;;;;;;4973279;28;20034;-76
2022/06/24 08:46:03;;;;;;;20.13;14.32;;;25.30;51.30;;;;;;4988881;28;20039;-76
2022/06/24 08:48:32;;;;;;;20.05;11.40;;;25.20;49.50;;;;;;4973098;28;20037;-76
2022/06/24 08:51:02;;;;;;;17.73;9.65;;;25.20;48.20;;;;;;4988806;28;20549;-75
2022/06/24 08:53:29;;;;;;;14.25;7.85;;;25.20;48.70;;;;;;4971086;28;20054;-76
2022/06/24 08:55:56;;;;;;;17.95;8.98;;;25.10;48.30;;;;;;4972786;28;20037;-74
2022/06/24 08:58:22;;;;;;;12.52;7.20;;;25.10;49.50;;;;;;4973780;28;20080;-73
2022/06/24 09:00:48;;;;;;;15.60;6.75;;;25.10;48.70;;;;;;4971212;28;20117;-74
2022/06/24 09:03:14;;;;;;;14.57;6.35;;;25.10;49.00;;;;;;4973047;28;20038;-74
2022/06/24 09:05:40;;;;;;;13.63;5.97;;;25.10;48.50;;;;;;4955385;28;20054;-74
2022/06/24 09:08:08;;;;;;;14.40;8.38;;;25.10;48.00;;;;;;4971464;28;20110;-74
2022/06/24 09:10:36;;;;;;;17.98;10.20;;;25.20;47.60;;;;;;4969543;28;20034;-75
2022/06/24 09:13:03;;;;;;;14.73;8.52;;;25.10;47.30;;;;;;4972266;28;20379;-76
2022/06/24 09:15:29;;;;;;;11.65;6.10;;;25.10;47.10;;;;;;4971892;28;20113;-74
2022/06/24 09:17:56;;;;;;;10.77;6.20;;;25.10;47.20;;;;;;4964819;28;20154;-75
2022/06/24 09:20:27;;;;;;;10.45;5.10;;;25.10;47.20;;;;;;4969732;28;20035;-75
2022/06/24 09:23:05;;;;;;;10.20;4.68;;;25.10;46.90;;;;;;4964322;28;20384;-76
2022/06/24 09:25:42;;;;;;;7.75;4.43;;;25.10;46.70;;;;;;4971902;28;20081;-75
2022/06/24 09:28:10;;;;;;;6.60;3.90;;;25.10;46.70;;;;;;4988607;28;20580;-75
2022/06/24 09:30:38;;;;;;;7.95;3.83;;;25.10;46.70;;;;;;4973747;28;20037;-75
2022/06/24 09:33:04;;;;;;;7.97;3.67;;;25.20;46.30;;;;;;4972930;28;20427;-76
2022/06/24 09:35:34;;;;;;;8.45;4.22;;;25.20;46.40;;;;;;4987628;28;20027;-75
2022/06/24 09:38:00;;;;;;;5.85;3.42;;;25.10;46.30;;;;;;4973315;28;20027;-75
2022/06/24 09:40:28;;;;;;;24.17;4.35;;;25.20;46.20;;;;;;4973133;28;20037;-76
2022/06/24 09:42:56;;;;;;;7.35;3.50;;;25.10;45.80;;;;;;4967661;28;20042;-74
2022/06/24 09:45:23;;;;;;;9.32;3.92;;;25.10;45.90;;;;;;4972921;28;20030;-75
2022/06/24 09:47:49;;;;;;;6.25;3.55;;;25.20;45.60;;;;;;4972209;28;20137;-75
2022/06/24 09:50:17;;;;;;;10.77;3.78;;;25.10;45.70;;;;;;4974606;28;20026;-75
2022/06/24 09:52:44;;;;;;;6.28;3.28;;;25.20;45.20;;;;;;4971345;28;20077;-74
2022/06/24 09:55:10;;;;;;;11.85;3.70;;;25.30;44.90;;;;;;4974351;28;20309;-75
2022/06/24 09:57:38;;;;;;;6.72;3.40;;;25.70;43.60;;;;;;4969928;28;20030;-74
2022/06/24 10:02:50;;;;;;;8.32;3.35;;;26.10;42.10;;;;;;4974560;28;20066;-75
2022/06/24 10:05:18;;;;;;;7.45;3.20;;;25.90;43.10;;;;;;4977445;28;20023;-74
2022/06/24 10:07:48;;;;;;;9.48;3.13;;;25.70;43.10;;;;;;4976227;28;20422;-74
2022/06/24 10:10:17;;;;;;;5.18;3.08;;;25.60;43.10;;;;;;4976633;28;20101;-75
2022/06/24 10:12:52;;;;;;;6.03;3.20;;;25.60;42.90;;;;;;4970238;28;20388;-75
2022/06/24 10:15:18;;;;;;;8.93;3.60;;;25.50;43.70;;;;;;4953304;28;20479;-79
2022/06/24 10:17:47;;;;;;;7.38;3.72;;;25.50;43.80;;;;;;4955135;28;20387;-81
2022/06/24 10:20:14;;;;;;;8.07;3.67;;;25.50;43.70;;;;;;4956671;28;20031;-81
2022/06/24 10:22:46;;;;;;;5.22;3.47;;;25.40;45.00;;;;;;4974209;28;20031;-79
2022/06/24 10:25:41;;;;;;;6.95;3.85;;;25.30;45.80;;;;;;4957304;28;20035;-79
2022/06/24 10:28:07;;;;;;;5.13;3.40;;;25.20;46.30;;;;;;4975748;28;20395;-81
2022/06/24 10:30:39;;;;;;;6.13;4.10;;;25.10;46.60;;;;;;4944075;28;20035;-81
2022/06/24 10:33:19;;;;;;;12.02;4.68;;;25.00;47.50;;;;;;4973490;28;20114;-80
2022/06/24 10:36:02;;;;;;;11.00;5.00;;;25.00;47.40;;;;;;4973792;28;20505;-81
2022/06/24 10:38:40;;;;;;;11.15;4.85;;;25.00;47.50;;;;;;4976585;28;20035;-80
2022/06/24 10:41:11;;;;;;;16.80;5.90;;;25.00;47.70;;;;;;4973058;28;20030;-80
2022/06/24 10:43:36;;;;;;;7.95;4.95;;;25.00;47.60;;;;;;4974267;28;20121;-80
2022/06/24 10:46:11;;;;;;;10.23;5.32;;;24.90;47.80;;;;;;4974448;28;20126;-80
2022/06/24 10:48:49;;;;;;;8.82;5.18;;;25.00;48.10;;;;;;4975128;28;20042;-79
2022/06/24 10:51:17;;;;;;;8.48;4.75;;;24.90;48.10;;;;;;4981033;28;20038;-79
2022/06/24 10:54:01;;;;;;;7.88;4.63;;;24.90;48.30;;;;;;4979853;28;20023;-80
2022/06/24 10:56:43;;;;;;;9.18;4.88;;;24.90;48.50;;;;;;4979362;28;20566;-80
2022/06/24 10:59:10;;;;;;;11.35;4.57;;;24.90;48.60;;;;;;4975035;28;20098;-80
2022/06/24 11:01:41;;;;;;;9.27;4.50;;;24.90;48.70;;;;;;4973557;28;20030;-80
2022/06/24 11:04:09;;;;;;;7.43;4.53;;;24.90;48.90;;;;;;4974502;28;20033;-80
2022/06/24 11:06:35;;;;;;;10.27;4.13;;;24.90;49.90;;;;;;4971502;28;20408;-81
2022/06/24 11:09:06;;;;;;;7.70;5.10;;;24.90;49.70;;;;;;4953036;28;20031;-81
2022/06/24 11:11:32;;;;;;;10.07;4.80;;;24.90;50.10;;;;;;4955414;28;20027;-81
2022/06/24 11:13:58;;;;;;;8.60;5.00;;;24.90;51.20;;;;;;4938663;29;20094;-81
2022/06/24 11:16:28;;;;;;;7.63;4.93;;;24.90;51.50;;;;;;4953686;29;20031;-80
2022/06/24 11:18:54;;;;;;;8.27;4.38;;;24.90;52.00;;;;;;4954690;28;20031;-80
2022/06/24 11:21:20;;;;;;;7.75;4.68;;;24.90;52.00;;;;;;4952966;28;20042;-79
2022/06/24 11:23:47;;;;;;;8.27;4.55;;;24.90;51.70;;;;;;4953105;28;20028;-80
2022/06/24 11:26:14;;;;;;;8.13;4.50;;;24.90;51.80;;;;;;4953103;29;20033;-80
2022/06/24 11:28:41;;;;;;;9.43;4.63;;;24.90;51.70;;;;;;4954401;28;20439;-81
2022/06/24 11:31:23;;;;;;;9.35;4.45;;;24.90;51.70;;;;;;4953767;28;20033;-80
2022/06/24 11:34:03;;;;;;;8.07;4.22;;;24.90;51.70;;;;;;4954313;28;20086;-81
2022/06/24 11:36:31;;;;;;;7.28;4.40;;;24.90;52.10;;;;;;4936214;29;20043;-81
2022/06/24 11:39:03;;;;;;;9.20;4.43;;;24.90;52.10;;;;;;4953621;28;20031;-81
2022/06/24 11:41:30;;;;;;;6.00;3.95;;;24.90;52.10;;;;;;4952389;29;20082;-81
2022/06/24 11:43:56;;;;;;;7.45;4.00;;;24.90;52.10;;;;;;4952859;29;20032;-81
2022/06/24 11:46:22;;;;;;;8.07;3.92;;;24.90;52.20;;;;;;4951825;28;20031;-81
2022/06/24 11:48:48;;;;;;;7.70;4.35;;;24.90;52.30;;;;;;4953316;28;20031;-81
2022/06/24 11:51:18;;;;;;;7.50;4.55;;;24.90;52.40;;;;;;4951970;29;20054;-81
2022/06/24 11:53:57;;;;;;;7.20;4.10;;;24.90;52.50;;;;;;4953459;28;20027;-80
2022/06/24 11:56:29;;;;;;;8.45;4.53;;;24.90;52.10;;;;;;4967761;28;20027;-80
2022/06/24 11:59:03;;;;;;;7.50;4.15;;;24.90;52.20;;;;;;4953446;28;20492;-80
2022/06/24 12:01:30;;;;;;;9.32;4.20;;;24.90;52.50;;;;;;4967058;23;20063;-73
2022/06/24 12:03:58;;;;;;;7.50;3.80;;;24.90;52.50;;;;;;4967927;28;20043;-73
2022/06/24 12:06:25;;;;;;;6.75;4.13;;;24.90;52.40;;;;;;4952325;28;20031;-73
2022/06/24 12:08:52;;;;;;;8.18;4.07;;;24.90;52.30;;;;;;4952990;29;20085;-73
2022/06/24 12:11:20;;;;;;;7.63;3.83;;;25.00;52.40;;;;;;4967702;28;20159;-73
2022/06/24 12:14:02;;;;;;;8.50;4.20;;;25.00;52.50;;;;;;4953354;28;20031;-73
2022/06/24 12:16:48;;;;;;;7.80;4.40;;;24.90;52.30;;;;;;4952894;28;20027;-73
2022/06/24 12:19:15;;;;;;;8.30;4.07;;;24.90;52.50;;;;;;4952977;28;20039;-73
2022/06/24 12:22:09;;;;;;;7.80;4.20;;;25.00;52.50;;;;;;4953053;28;20027;-73
2022/06/24 12:24:36;;;;;;;6.55;4.22;;;25.00;52.80;;;;;;4947573;29;20046;-73
2022/06/24 12:27:04;;;;;;;8.52;4.10;;;25.00;52.60;;;;;;4952916;28;20432;-73
2022/06/24 12:29:41;;;;;;;8.48;4.47;;;25.00;53.10;;;;;;4952754;28;20142;-73
2022/06/24 12:32:07;;;;;;;8.00;4.55;;;25.00;53.80;;;;;;4952988;28;20427;-73
2022/06/24 12:34:36;;;;;;;7.72;4.13;;;25.00;54.90;;;;;;4953055;28;20086;-73
2022/06/24 12:37:08;;;;;;;7.00;4.23;;;25.00;54.50;;;;;;4952560;28;20027;-73
2022/06/24 12:39:40;;;;;;;8.38;4.25;;;25.00;54.70;;;;;;4952856;28;20480;-73
2022/06/24 12:42:07;;;;;;;7.75;3.88;;;25.00;54.50;;;;;;4950814;28;20035;-73
2022/06/24 12:44:55;;;;;;;7.60;4.25;;;25.00;54.70;;;;;;4952569;28;20066;-73
2022/06/24 12:53:00;;;;;;;;;;;25.00;53.80;;;;;;4952460;28;20031;-73
2022/06/24 12:55:27;;;;;;;8.23;4.15;;;24.90;53.80;;;;;;4959043;28;20401;-73
2022/06/24 12:57:53;;;;;;;9.20;4.00;;;25.00;54.50;;;;;;4967436;28;20023;-73
2022/06/24 13:00:20;;;;;;;10.35;4.75;;;25.00;53.80;;;;;;4952557;28;20496;-73
2022/06/24 13:02:48;;;;;;;9.07;4.28;;;25.00;54.00;;;;;;4951826;28;20113;-73